Flight Track Log - Related Links

Times and Time Zones

All times are in EDT time to prevent confusion due to time zone crossing. See the DAL110 flight status page for this flight to view local times or setup timezone preferences in your user account.

Time Position Orientation Groundspeed Altitude Reporting Facility
EDT Latitude Longitude Course Direction KTS MPH feet Rate Location/Type
Sun 07:27:00 PM -34.5988 -58.6339 339° North  Level FlightAware Approximate
Sun 07:28:00 PM -34.4865 -58.6862 339° North  Level FlightAware Approximate
Sun 07:29:00 PM -34.3741 -58.7384 339° North  Level FlightAware Approximate
Sun 07:30:00 PM -34.2617 -58.7905 339° North  Level FlightAware Approximate
Sun 07:31:00 PM -34.1493 -58.8424 339° North  Level FlightAware Approximate
Sun 07:32:00 PM -34.0368 -58.8942 339° North  Level FlightAware Approximate
Sun 07:33:00 PM -33.9243 -58.9458 339° North  Level FlightAware Approximate
Sun 07:34:00 PM -33.8118 -58.9973 339° North  Level FlightAware Approximate
Sun 07:35:00 PM -33.6993 -59.0487 339° North  Level FlightAware Approximate
Sun 07:36:00 PM -33.5868 -59.0999 339° North  Level FlightAware Approximate
Sun 07:37:00 PM -33.4718 -59.1526 339° North  Level FlightAware Approximate
Sun 07:38:00 PM -33.3594 -59.2041 339° North  Level FlightAware Approximate
Sun 07:39:00 PM -33.2470 -59.2555 339° North  Level FlightAware Approximate
Sun 07:40:00 PM -33.1345 -59.3067 339° North  Level FlightAware Approximate
Sun 07:41:00 PM -33.0220 -59.3578 339° North  Level FlightAware Approximate
Sun 07:42:00 PM -32.9065 -59.4102 339° North  Level FlightAware Approximate
Sun 07:43:00 PM -32.7910 -59.4624 339° North  Level FlightAware Approximate
Sun 07:44:00 PM -32.6754 -59.5145 339° North  Level FlightAware Approximate
Sun 07:45:00 PM -32.5599 -59.5664 339° North  Level FlightAware Approximate
Sun 07:46:00 PM -32.4443 -59.6182 339° North  Level FlightAware Approximate
Sun 07:47:00 PM -32.3286 -59.6699 339° North  Level FlightAware Approximate
Sun 07:48:00 PM -32.2130 -59.7214 339° North  Level FlightAware Approximate
Sun 07:49:00 PM -32.0973 -59.7728 339° North  Level FlightAware Approximate
Sun 07:50:00 PM -31.9817 -59.8241 339° North  Level FlightAware Approximate
Sun 07:51:00 PM -31.8660 -59.8753 339° North  Level FlightAware Approximate
Sun 07:52:00 PM -31.7502 -59.9263 339° North  Level FlightAware Approximate
Sun 07:53:00 PM -31.6345 -59.9772 339° North  Level FlightAware Approximate
Sun 07:54:00 PM -31.5187 -60.0280 339° North  Level FlightAware Approximate
Sun 07:55:00 PM -31.4029 -60.0786 340° North  Level FlightAware Approximate
Sun 07:56:00 PM -31.2875 -60.1290 340° North  Level FlightAware Approximate
Sun 07:57:00 PM -31.1721 -60.1792 340° North  Level FlightAware Approximate
Sun 07:58:00 PM -31.0566 -60.2293 340° North  Level FlightAware Approximate
Sun 07:59:00 PM -30.9411 -60.2793 340° North  Level FlightAware Approximate
Sun 08:00:00 PM -30.8256 -60.3292 340° North  Level FlightAware Approximate
Sun 08:01:00 PM -30.7101 -60.3789 340° North  Level FlightAware Approximate
Sun 08:02:00 PM -30.5946 -60.4285 340° North  Level FlightAware Approximate
Sun 08:03:00 PM -30.4790 -60.4780 340° North  Level FlightAware Approximate
Sun 08:04:00 PM -30.3635 -60.5274 340° North  Level FlightAware Approximate
Sun 08:05:00 PM -30.2479 -60.5767 340° North  Level FlightAware Approximate
Sun 08:06:00 PM -30.1323 -60.6259 340° North  Level FlightAware Approximate
Sun 08:07:00 PM -30.0166 -60.6749 340° North  Level FlightAware Approximate
Sun 08:08:00 PM -29.9010 -60.7238 340° North  Level FlightAware Approximate
Sun 08:09:00 PM -29.7853 -60.7727 340° North  Level FlightAware Approximate
Sun 08:10:00 PM -29.6696 -60.8214 340° North  Level FlightAware Approximate
Sun 08:11:00 PM -29.5539 -60.8699 340° North  Level FlightAware Approximate
Sun 08:12:00 PM -29.4382 -60.9184 340° North  Level FlightAware Approximate
Sun 08:13:00 PM -29.3225 -60.9668 340° North  Level FlightAware Approximate
Sun 08:14:00 PM -29.2068 -61.0150 340° North  Level FlightAware Approximate
Sun 08:15:00 PM -29.0910 -61.0632 340° North  Level FlightAware Approximate
Sun 08:16:00 PM -28.9752 -61.1112 340° North  Level FlightAware Approximate
Sun 08:17:00 PM -28.8594 -61.1592 340° North  Level FlightAware Approximate
Sun 08:18:00 PM -28.7436 -61.2070 340° North  Level FlightAware Approximate
Sun 08:19:00 PM -28.6277 -61.2547 340° North  Level FlightAware Approximate
Sun 08:20:00 PM -28.5119 -61.3023 340° North  Level FlightAware Approximate
Sun 08:21:00 PM -28.3960 -61.3499 340° North  Level FlightAware Approximate
Sun 08:22:00 PM -28.2801 -61.3973 340° North  Level FlightAware Approximate
Sun 08:23:00 PM -28.1642 -61.4446 340° North  Level FlightAware Approximate
Sun 08:24:00 PM -28.0483 -61.4918 340° North  Level FlightAware Approximate
Sun 08:25:00 PM -27.9324 -61.5389 340° North  Level FlightAware Approximate
Sun 08:26:00 PM -27.8164 -61.5859 340° North  Level FlightAware Approximate
Sun 08:27:00 PM -27.7005 -61.6328 340° North  Level FlightAware Approximate
Sun 08:28:00 PM -27.5845 -61.6796 340° North  Level FlightAware Approximate
Sun 08:29:00 PM -27.4685 -61.7263 340° North  Level FlightAware Approximate
Sun 08:30:00 PM -27.3525 -61.7729 340° North  Level FlightAware Approximate
Sun 08:31:00 PM -27.2364 -61.8194 340° North  Level FlightAware Approximate
Sun 08:32:00 PM -27.1204 -61.8658 340° North  Level FlightAware Approximate
Sun 08:33:00 PM -27.0043 -61.9121 340° North  Level FlightAware Approximate
Sun 08:34:00 PM -26.8883 -61.9583 340° North  Level FlightAware Approximate
Sun 08:35:00 PM -26.7722 -62.0045 340° North  Level FlightAware Approximate
Sun 08:36:00 PM -26.6561 -62.0505 340° North  Level FlightAware Approximate
Sun 08:37:00 PM -26.5400 -62.0964 341° North  Level FlightAware Approximate
Sun 08:38:00 PM -26.4238 -62.1423 341° North  Level FlightAware Approximate
Sun 08:39:00 PM -26.3077 -62.1880 341° North  Level FlightAware Approximate
Sun 08:40:00 PM -26.1915 -62.2337 341° North  Level FlightAware Approximate
Sun 08:41:00 PM -26.0753 -62.2792 341° North  Level FlightAware Approximate
Sun 08:42:00 PM -25.9592 -62.3247 341° North  Level FlightAware Approximate
Sun 08:43:00 PM -25.8430 -62.3701 341° North  Level FlightAware Approximate
Sun 08:44:00 PM -25.7267 -62.4154 341° North  Level FlightAware Approximate
Sun 08:45:00 PM -25.6105 -62.4606 341° North  Level FlightAware Approximate
Sun 08:46:00 PM -25.4942 -62.5057 341° North  Level FlightAware Approximate
Sun 08:47:00 PM -25.3780 -62.5508 341° North  Level FlightAware Approximate
Sun 08:48:00 PM -25.2617 -62.5957 341° North  Level FlightAware Approximate
Sun 08:49:00 PM -25.1454 -62.6406 341° North  Level FlightAware Approximate
Sun 08:50:00 PM -25.0291 -62.6854 341° North  Level FlightAware Approximate
Sun 08:51:00 PM -24.9128 -62.7300 341° North  Level FlightAware Approximate
Sun 08:52:00 PM -24.7965 -62.7747 341° North  Level FlightAware Approximate
Sun 08:53:00 PM -24.6801 -62.8192 341° North  Level FlightAware Approximate
Sun 08:54:00 PM -24.5638 -62.8636 341° North  Level FlightAware Approximate
Sun 08:55:00 PM -24.4474 -62.9080 341° North  Level FlightAware Approximate
Sun 08:56:00 PM -24.3311 -62.9523 341° North  Level FlightAware Approximate
Sun 08:57:00 PM -24.2147 -62.9965 341° North  Level FlightAware Approximate
Sun 08:58:00 PM -24.0982 -63.0406 341° North  Level FlightAware Approximate
Sun 08:59:00 PM -23.9818 -63.0846 341° North  Level FlightAware Approximate
Sun 09:00:00 PM -23.8654 -63.1286 341° North  Level FlightAware Approximate
Sun 09:01:00 PM -23.7490 -63.1724 341° North  Level FlightAware Approximate
Sun 09:02:00 PM -23.6325 -63.2162 341° North  Level FlightAware Approximate
Sun 09:03:00 PM -23.5160 -63.2600 341° North  Level FlightAware Approximate
Sun 09:04:00 PM -23.3995 -63.3036 341° North  Level FlightAware Approximate
Sun 09:05:00 PM -23.2831 -63.3472 341° North  Level FlightAware Approximate
Sun 09:06:00 PM -23.1666 -63.3907 341° North  Level FlightAware Approximate
Sun 09:07:00 PM -23.0500 -63.4341 341° North  Level FlightAware Approximate
Sun 09:08:00 PM -22.9335 -63.4774 341° North  Level FlightAware Approximate
Sun 09:09:00 PM -22.8170 -63.5207 341° North  Level FlightAware Approximate
Sun 09:10:00 PM -22.7004 -63.5639 341° North  Level FlightAware Approximate
Sun 09:11:00 PM -22.5842 -63.6068 341° North  Level FlightAware Approximate
Sun 09:12:00 PM -22.4681 -63.6497 341° North  Level FlightAware Approximate
Sun 09:13:00 PM -22.3519 -63.6926 341° North  Level FlightAware Approximate
Sun 09:14:00 PM -22.2356 -63.7353 341° North  Level FlightAware Approximate
Sun 09:15:00 PM -22.1194 -63.7780 341° North  Level FlightAware Approximate
Sun 09:16:00 PM -22.0032 -63.8206 341° North  Level FlightAware Approximate
Sun 09:17:00 PM -21.8870 -63.8632 341° North  Level FlightAware Approximate
Sun 09:18:00 PM -21.7707 -63.9057 341° North  Level FlightAware Approximate
Sun 09:19:00 PM -21.6544 -63.9481 341° North  Level FlightAware Approximate
Sun 09:20:00 PM -21.5382 -63.9904 341° North  Level FlightAware Approximate
Sun 09:21:00 PM -21.4219 -64.0327 341° North  Level FlightAware Approximate
Sun 09:22:00 PM -21.3056 -64.0749 341° North  Level FlightAware Approximate
Sun 09:23:00 PM -21.1893 -64.1170 341° North  Level FlightAware Approximate
Sun 09:24:00 PM -21.0730 -64.1591 341° North  Level FlightAware Approximate
Sun 09:25:00 PM -20.9566 -64.2011 341° North  Level FlightAware Approximate
Sun 09:26:00 PM -20.8403 -64.2430 341° North  Level FlightAware Approximate
Sun 09:27:00 PM -20.7240 -64.2849 341° North  Level FlightAware Approximate
Sun 09:28:00 PM -20.6076 -64.3267 341° North  Level FlightAware Approximate
Sun 09:29:00 PM -20.4912 -64.3685 341° North  Level FlightAware Approximate
Sun 09:30:00 PM -20.3748 -64.4102 341° North  Level FlightAware Approximate
Sun 09:31:00 PM -20.2585 -64.4518 341° North  Level FlightAware Approximate
Sun 09:32:00 PM -20.1421 -64.4933 341° North  Level FlightAware Approximate
Sun 09:33:00 PM -20.0257 -64.5349 341° North  Level FlightAware Approximate
Sun 09:34:00 PM -19.9092 -64.5763 341° North  Level FlightAware Approximate
Sun 09:35:00 PM -19.7928 -64.6177 342° North  Level FlightAware Approximate
Sun 09:36:00 PM -19.6764 -64.6590 342° North  Level FlightAware Approximate
Sun 09:37:00 PM -19.5599 -64.7002 342° North  Level FlightAware Approximate
Sun 09:38:00 PM -19.4435 -64.7414 342° North  Level FlightAware Approximate
Sun 09:39:00 PM -19.3270 -64.7826 342° North  Level FlightAware Approximate
Sun 09:40:00 PM -19.2106 -64.8236 342° North  Level FlightAware Approximate
Sun 09:41:00 PM -19.0941 -64.8647 342° North  Level FlightAware Approximate
Sun 09:42:00 PM -18.9776 -64.9056 342° North  Level FlightAware Approximate
Sun 09:43:00 PM -18.8611 -64.9465 342° North  Level FlightAware Approximate
Sun 09:44:00 PM -18.7446 -64.9874 342° North  Level FlightAware Approximate
Sun 09:45:00 PM -18.6280 -65.0282 342° North  Level FlightAware Approximate
Sun 09:46:00 PM -18.5115 -65.0689 342° North  Level FlightAware Approximate
Sun 09:47:00 PM -18.3950 -65.1096 342° North  Level FlightAware Approximate
Sun 09:48:00 PM -18.2785 -65.1502 342° North  Level FlightAware Approximate
Sun 09:49:00 PM -18.1619 -65.1908 342° North  Level FlightAware Approximate
Sun 09:50:00 PM -18.0453 -65.2313 342° North  Level FlightAware Approximate
Sun 09:51:00 PM -17.9288 -65.2718 342° North  Level FlightAware Approximate
Sun 09:52:00 PM -17.8122 -65.3122 342° North  Level FlightAware Approximate
Sun 09:53:00 PM -17.6956 -65.3525 342° North  Level FlightAware Approximate
Sun 09:54:00 PM -17.5790 -65.3928 342° North  Level FlightAware Approximate
Sun 09:55:00 PM -17.4624 -65.4331 342° North  Level FlightAware Approximate
Sun 09:56:00 PM -17.3458 -65.4733 342° North  Level FlightAware Approximate
Sun 09:57:00 PM -17.2292 -65.5134 342° North  Level FlightAware Approximate
Sun 09:58:00 PM -17.1126 -65.5535 342° North  Level FlightAware Approximate
Sun 09:59:00 PM -16.9959 -65.5936 342° North  Level FlightAware Approximate
Sun 10:00:00 PM -16.8793 -65.6336 342° North  Level FlightAware Approximate
Sun 10:01:00 PM -16.7626 -65.6735 342° North  Level FlightAware Approximate
Sun 10:02:00 PM -16.6460 -65.7134 342° North  Level FlightAware Approximate
Sun 10:03:00 PM -16.5293 -65.7533 342° North  Level FlightAware Approximate
Sun 10:04:00 PM -16.4126 -65.7931 342° North  Level FlightAware Approximate
Sun 10:05:00 PM -16.2960 -65.8328 342° North  Level FlightAware Approximate
Sun 10:06:00 PM -16.1793 -65.8726 342° North  Level FlightAware Approximate
Sun 10:07:00 PM -16.0626 -65.9122 342° North  Level FlightAware Approximate
Sun 10:08:00 PM -15.9459 -65.9518 342° North  Level FlightAware Approximate
Sun 10:09:00 PM -15.8292 -65.9914 342° North  Level FlightAware Approximate
Sun 10:10:00 PM -15.7125 -66.0309 342° North  Level FlightAware Approximate
Sun 10:11:00 PM -15.5957 -66.0704 342° North  Level FlightAware Approximate
Sun 10:12:00 PM -15.4790 -66.1098 342° North  Level FlightAware Approximate
Sun 10:13:00 PM -15.3623 -66.1492 342° North  Level FlightAware Approximate
Sun 10:14:00 PM -15.2455 -66.1886 342° North  Level FlightAware Approximate
Sun 10:15:00 PM -15.1288 -66.2279 342° North  Level FlightAware Approximate
Sun 10:16:00 PM -15.0120 -66.2671 342° North  Level FlightAware Approximate
Sun 10:17:00 PM -14.8953 -66.3064 342° North  Level FlightAware Approximate
Sun 10:18:00 PM -14.7785 -66.3455 342° North  Level FlightAware Approximate
Sun 10:19:00 PM -14.6617 -66.3847 342° North  Level FlightAware Approximate
Sun 10:20:00 PM -14.5449 -66.4238 342° North  Level FlightAware Approximate
Sun 10:21:00 PM -14.4281 -66.4628 342° North  Level FlightAware Approximate
Sun 10:22:00 PM -14.3113 -66.5018 342° North  Level FlightAware Approximate
Sun 10:23:00 PM -14.1945 -66.5408 342° North  Level FlightAware Approximate
Sun 10:24:00 PM -14.0777 -66.5797 342° North  Level FlightAware Approximate
Sun 10:25:00 PM -13.9609 -66.6186 342° North  Level FlightAware Approximate
Sun 10:26:00 PM -13.8443 -66.6574 342° North  Level FlightAware Approximate
Sun 10:27:00 PM -13.7276 -66.6961 342° North  Level FlightAware Approximate
Sun 10:28:00 PM -13.6110 -66.7348 342° North  Level FlightAware Approximate
Sun 10:29:00 PM -13.4944 -66.7735 342° North  Level FlightAware Approximate
Sun 10:30:00 PM -13.3777 -66.8121 342° North  Level FlightAware Approximate
Sun 10:31:00 PM -13.2610 -66.8507 342° North  Level FlightAware Approximate
Sun 10:32:00 PM -13.1444 -66.8893 342° North  Level FlightAware Approximate
Sun 10:33:00 PM -13.0277 -66.9278 342° North  Level FlightAware Approximate
Sun 10:34:00 PM -12.9110 -66.9663 342° North  Level FlightAware Approximate
Sun 10:35:00 PM -12.7944 -67.0047 342° North  Level FlightAware Approximate
Sun 10:36:00 PM -12.6777 -67.0431 342° North  Level FlightAware Approximate
Sun 10:37:00 PM -12.5610 -67.0815 342° North  Level FlightAware Approximate
Sun 10:38:00 PM -12.4443 -67.1198 342° North  Level FlightAware Approximate
Sun 10:39:00 PM -12.3276 -67.1581 342° North  Level FlightAware Approximate
Sun 10:40:00 PM -12.2109 -67.1964 342° North  Level FlightAware Approximate
Sun 10:41:00 PM -12.0942 -67.2346 342° North  Level FlightAware Approximate
Sun 10:42:00 PM -11.9774 -67.2729 342° North  Level FlightAware Approximate
Sun 10:43:00 PM -11.8607 -67.3110 342° North  Level FlightAware Approximate
Sun 10:44:00 PM -11.7440 -67.3492 342° North  Level FlightAware Approximate
Sun 10:45:00 PM -11.6273 -67.3873 342° North  Level FlightAware Approximate
Sun 10:46:00 PM -11.5105 -67.4253 342° North  Level FlightAware Approximate
Sun 10:47:00 PM -11.3938 -67.4634 342° North  Level FlightAware Approximate
Sun 10:48:00 PM -11.2770 -67.5014 342° North  Level FlightAware Approximate
Sun 10:49:00 PM -11.1603 -67.5394 342° North  Level FlightAware Approximate
Sun 10:50:00 PM -11.0435 -67.5773 342° North  Level FlightAware Approximate
Sun 10:51:00 PM -10.9268 -67.6152 342° North  Level FlightAware Approximate
Sun 10:52:00 PM -10.8100 -67.6531 342° North  Level FlightAware Approximate
Sun 10:53:00 PM -10.6932 -67.6910 342° North  Level FlightAware Approximate
Sun 10:54:00 PM -10.5764 -67.7288 342° North  Level FlightAware Approximate
Sun 10:55:00 PM -10.4597 -67.7666 342° North  Level FlightAware Approximate
Sun 10:56:00 PM -10.3429 -67.8044 342° North  Level FlightAware Approximate
Sun 10:57:00 PM -10.2261 -67.8421 342° North  Level FlightAware Approximate
Sun 10:58:00 PM -10.1093 -67.8799 342° North  Level FlightAware Approximate
Sun 10:59:00 PM -9.9925 -67.9175 342° North  Level FlightAware Approximate
Sun 11:00:00 PM -9.8757 -67.9552 342° North  Level FlightAware Approximate
Sun 11:01:00 PM -9.7589 -67.9929 342° North  Level FlightAware Approximate
Sun 11:02:00 PM -9.6421 -68.0305 342° North  Level FlightAware Approximate
Sun 11:03:00 PM -9.5253 -68.0680 342° North  Level FlightAware Approximate
Sun 11:04:00 PM -9.4084 -68.1056 342° North  Level FlightAware Approximate
Sun 11:05:00 PM -9.2916 -68.1431 342° North  Level FlightAware Approximate
Sun 11:06:00 PM -9.1748 -68.1806 342° North  Level FlightAware Approximate
Sun 11:07:00 PM -9.0580 -68.2181 342° North  Level FlightAware Approximate
Sun 11:08:00 PM -8.9411 -68.2556 342° North  Level FlightAware Approximate
Sun 11:09:00 PM -8.8243 -68.2930 342° North  Level FlightAware Approximate
Sun 11:10:00 PM -8.7074 -68.3304 342° North  Level FlightAware Approximate
Sun 11:11:00 PM -8.5906 -68.3678 342° North  Level FlightAware Approximate
Sun 11:12:00 PM -8.4738 -68.4052 342° North  Level FlightAware Approximate
Sun 11:13:00 PM -8.3569 -68.4425 342° North  Level FlightAware Approximate
Sun 11:14:00 PM -8.2400 -68.4799 342° North  Level FlightAware Approximate
Sun 11:15:00 PM -8.1232 -68.5172 342° North  Level FlightAware Approximate
Sun 11:16:00 PM -8.0063 -68.5544 342° North  Level FlightAware Approximate
Sun 11:17:00 PM -7.8895 -68.5917 342° North  Level FlightAware Approximate
Sun 11:18:00 PM -7.7726 -68.6289 342° North  Level FlightAware Approximate
Sun 11:19:00 PM -7.6557 -68.6661 342° North  Level FlightAware Approximate
Sun 11:20:00 PM -7.5388 -68.7033 342° North  Level FlightAware Approximate
Sun 11:21:00 PM -7.4219 -68.7405 342° North  Level FlightAware Approximate
Sun 11:22:00 PM -7.3051 -68.7776 343° North  Level FlightAware Approximate
Sun 11:23:00 PM -7.1882 -68.8148 343° North  Level FlightAware Approximate
Sun 11:24:00 PM -7.0713 -68.8519 343° North  Level FlightAware Approximate
Sun 11:25:00 PM -6.9544 -68.8890 343° North  Level FlightAware Approximate
Sun 11:26:00 PM -6.8375 -68.9261 343° North  Level FlightAware Approximate
Sun 11:27:00 PM -6.7206 -68.9631 343° North  Level FlightAware Approximate
Sun 11:28:00 PM -6.6037 -69.0002 343° North  Level FlightAware Approximate
Sun 11:29:00 PM -6.4868 -69.0372 343° North  Level FlightAware Approximate
Sun 11:30:00 PM -6.3699 -69.0742 343° North  Level FlightAware Approximate
Sun 11:31:00 PM -6.2530 -69.1112 343° North  Level FlightAware Approximate
Sun 11:32:00 PM -6.1361 -69.1482 343° North  Level FlightAware Approximate
Sun 11:33:00 PM -6.0192 -69.1851 343° North  Level FlightAware Approximate
Sun 11:34:00 PM -5.9022 -69.2221 343° North  Level FlightAware Approximate
Sun 11:35:00 PM -5.7853 -69.2590 343° North  Level FlightAware Approximate
Sun 11:36:00 PM -5.6684 -69.2959 343° North  Level FlightAware Approximate
Sun 11:37:00 PM -5.5515 -69.3328 343° North  Level FlightAware Approximate
Sun 11:38:00 PM -5.4346 -69.3697 343° North  Level FlightAware Approximate
Sun 11:39:00 PM -5.3176 -69.4066 343° North  Level FlightAware Approximate
Sun 11:40:00 PM -5.2007 -69.4434 343° North  Level FlightAware Approximate
Sun 11:41:00 PM -5.0838 -69.4802 343° North  Level FlightAware Approximate
Sun 11:42:00 PM -4.9668 -69.5171 343° North  Level FlightAware Approximate
Sun 11:43:00 PM -4.8499 -69.5539 343° North  Level FlightAware Approximate
Sun 11:44:00 PM -4.7330 -69.5907 343° North  Level FlightAware Approximate
Sun 11:45:00 PM -4.6160 -69.6275 343° North  Level FlightAware Approximate
Sun 11:46:00 PM -4.4991 -69.6643 343° North  Level FlightAware Approximate
Sun 11:47:00 PM -4.3822 -69.7010 343° North  Level FlightAware Approximate
Sun 11:48:00 PM -4.2652 -69.7378 343° North  Level FlightAware Approximate
Sun 11:49:00 PM -4.1483 -69.7745 343° North  Level FlightAware Approximate
Sun 11:50:00 PM -4.0313 -69.8112 343° North  Level FlightAware Approximate
Sun 11:51:00 PM -3.9144 -69.8480 343° North  Level FlightAware Approximate
Sun 11:52:00 PM -3.7974 -69.8847 343° North  Level FlightAware Approximate
Sun 11:53:00 PM -3.6804 -69.9214 343° North  Level FlightAware Approximate
Sun 11:54:00 PM -3.5635 -69.9581 343° North  Level FlightAware Approximate
Sun 11:55:00 PM -3.4465 -69.9947 343° North  Level FlightAware Approximate
Sun 11:56:00 PM -3.3296 -70.0314 343° North  Level FlightAware Approximate
Sun 11:57:00 PM -3.2126 -70.0681 343° North  Level FlightAware Approximate
Sun 11:58:00 PM -3.0957 -70.1047 343° North  Level FlightAware Approximate
Sun 11:59:00 PM -2.9787 -70.1414 343° North  Level FlightAware Approximate
Mon 12:00:00 AM -2.8617 -70.1780 343° North  Level FlightAware Approximate
Mon 12:01:00 AM -2.7448 -70.2146 343° North  Level FlightAware Approximate
Mon 12:02:00 AM -2.6278 -70.2513 343° North  Level FlightAware Approximate
Mon 12:03:00 AM -2.5108 -70.2879 343° North  Level FlightAware Approximate
Mon 12:04:00 AM -2.3939 -70.3245 343° North  Level FlightAware Approximate
Mon 12:05:00 AM -2.2769 -70.3611 343° North  Level FlightAware Approximate
Mon 12:06:00 AM -2.1599 -70.3977 343° North  Level FlightAware Approximate
Mon 12:07:00 AM -2.0430 -70.4343 343° North  Level FlightAware Approximate
Mon 12:08:00 AM -1.9260 -70.4709 343° North  Level FlightAware Approximate
Mon 12:09:00 AM -1.8090 -70.5074 343° North  Level FlightAware Approximate
Mon 12:10:00 AM -1.6920 -70.5440 343° North  Level FlightAware Approximate
Mon 12:11:00 AM -1.5751 -70.5806 343° North  Level FlightAware Approximate
Mon 12:12:00 AM -1.4581 -70.6172 343° North  Level FlightAware Approximate
Mon 12:13:00 AM -1.3411 -70.6537 343° North  Level FlightAware Approximate
Mon 12:14:00 AM -1.2242 -70.6903 343° North  Level FlightAware Approximate
Mon 12:15:00 AM -1.1072 -70.7269 343° North  Level FlightAware Approximate
Mon 12:16:00 AM -0.9902 -70.7634 343° North  Level FlightAware Approximate
Mon 12:17:00 AM -0.8732 -70.8000 343° North  Level FlightAware Approximate
Mon 12:18:00 AM -0.7563 -70.8365 343° North  Level FlightAware Approximate
Mon 12:19:00 AM -0.6393 -70.8731 343° North  Level FlightAware Approximate
Mon 12:20:00 AM -0.5223 -70.9096 343° North  Level FlightAware Approximate
Mon 12:21:00 AM -0.4053 -70.9462 343° North  Level FlightAware Approximate
Mon 12:22:00 AM -0.2883 -70.9827 343° North  Level FlightAware Approximate
Mon 12:23:00 AM -0.1714 -71.0192 343° North  Level FlightAware Approximate
Mon 12:24:00 AM -0.0544 -71.0558 343° North  Level FlightAware Approximate
Mon 12:25:00 AM 0.0626 -71.0923 343° North  Level FlightAware Approximate
Mon 12:26:00 AM 0.1796 -71.1289 343° North  Level FlightAware Approximate
Mon 12:27:00 AM 0.2966 -71.1654 343° North  Level FlightAware Approximate
Mon 12:28:00 AM 0.4135 -71.2020 343° North  Level FlightAware Approximate
Mon 12:29:00 AM 0.5305 -71.2385 343° North  Level FlightAware Approximate
Mon 12:30:00 AM 0.6475 -71.2751 343° North  Level FlightAware Approximate
Mon 12:31:00 AM 0.7645 -71.3116 343° North  Level FlightAware Approximate
Mon 12:32:00 AM 0.8815 -71.3482 343° North  Level FlightAware Approximate
Mon 12:33:00 AM 0.9984 -71.3847 343° North  Level FlightAware Approximate
Mon 12:34:00 AM 1.1154 -71.4213 343° North  Level FlightAware Approximate
Mon 12:35:00 AM 1.2324 -71.4578 343° North  Level FlightAware Approximate
Mon 12:36:00 AM 1.3494 -71.4944 343° North  Level FlightAware Approximate
Mon 12:37:00 AM 1.4663 -71.5310 343° North  Level FlightAware Approximate
Mon 12:38:00 AM 1.5833 -71.5675 343° North  Level FlightAware Approximate
Mon 12:39:00 AM 1.7003 -71.6041 343° North  Level FlightAware Approximate
Mon 12:40:00 AM 1.8173 -71.6407 343° North  Level FlightAware Approximate
Mon 12:41:00 AM 1.9342 -71.6773 343° North  Level FlightAware Approximate
Mon 12:42:00 AM 2.0512 -71.7139 343° North  Level FlightAware Approximate
Mon 12:43:00 AM 2.1682 -71.7504 343° North  Level FlightAware Approximate
Mon 12:44:00 AM 2.2851 -71.7870 343° North  Level FlightAware Approximate
Mon 12:45:00 AM 2.4021 -71.8236 343° North  Level FlightAware Approximate
Mon 12:46:00 AM 2.5191 -71.8603 343° North  Level FlightAware Approximate
Mon 12:47:00 AM 2.6360 -71.8969 343° North  Level FlightAware Approximate
Mon 12:48:00 AM 2.7530 -71.9335 343° North  Level FlightAware Approximate
Mon 12:49:00 AM 2.8700 -71.9701 343° North  Level FlightAware Approximate
Mon 12:50:00 AM 2.9869 -72.0068 343° North  Level FlightAware Approximate
Mon 12:51:00 AM 3.1039 -72.0434 343° North  Level FlightAware Approximate
Mon 12:52:00 AM 3.2209 -72.0801 343° North  Level FlightAware Approximate
Mon 12:53:00 AM 3.3378 -72.1167 343° North  Level FlightAware Approximate
Mon 12:54:00 AM 3.4548 -72.1534 343° North  Level FlightAware Approximate
Mon 12:55:00 AM 3.5717 -72.1901 343° North  Level FlightAware Approximate
Mon 12:56:00 AM 3.6887 -72.2268 343° North  Level FlightAware Approximate
Mon 12:57:00 AM 3.8056 -72.2635 343° North  Level FlightAware Approximate
Mon 12:58:00 AM 3.9226 -72.3002 343° North  Level FlightAware Approximate
Mon 12:59:00 AM 4.0395 -72.3369 343° North  Level FlightAware Approximate
Mon 01:00:00 AM 4.1565 -72.3736 343° North  Level FlightAware Approximate
Mon 01:01:00 AM 4.2734 -72.4104 343° North  Level FlightAware Approximate
Mon 01:02:00 AM 4.3904 -72.4471 343° North  Level FlightAware Approximate
Mon 01:03:00 AM 4.5073 -72.4839 343° North  Level FlightAware Approximate
Mon 01:04:00 AM 4.6243 -72.5207 343° North  Level FlightAware Approximate
Mon 01:05:00 AM 4.7412 -72.5575 343° North  Level FlightAware Approximate
Mon 01:06:00 AM 4.8581 -72.5943 343° North  Level FlightAware Approximate
Mon 01:07:00 AM 4.9751 -72.6311 343° North  Level FlightAware Approximate
Mon 01:08:00 AM 5.0920 -72.6679 343° North  Level FlightAware Approximate
Mon 01:09:00 AM 5.2089 -72.7048 343° North  Level FlightAware Approximate
Mon 01:10:00 AM 5.3259 -72.7416 343° North  Level FlightAware Approximate
Mon 01:11:00 AM 5.4428 -72.7785 343° North  Level FlightAware Approximate
Mon 01:12:00 AM 5.5597 -72.8154 343° North  Level FlightAware Approximate
Mon 01:13:00 AM 5.6766 -72.8522 343° North  Level FlightAware Approximate
Mon 01:14:00 AM 5.7935 -72.8892 343° North  Level FlightAware Approximate
Mon 01:15:00 AM 5.9104 -72.9261 343° North  Level FlightAware Approximate
Mon 01:16:00 AM 6.0273 -72.9631 343° North  Level FlightAware Approximate
Mon 01:17:00 AM 6.1442 -73.0001 343° North  Level FlightAware Approximate
Mon 01:18:00 AM 6.2611 -73.0370 343° North  Level FlightAware Approximate
Mon 01:19:00 AM 6.3780 -73.0741 343° North  Level FlightAware Approximate
Mon 01:20:00 AM 6.4949 -73.1111 343° North  Level FlightAware Approximate
Mon 01:21:00 AM 6.6118 -73.1481 343° North  Level FlightAware Approximate
Mon 01:22:00 AM 6.7287 -73.1852 343° North  Level FlightAware Approximate
Mon 01:23:00 AM 6.8456 -73.2222 343° North  Level FlightAware Approximate
Mon 01:24:00 AM 6.9625 -73.2593 343° North  Level FlightAware Approximate
Mon 01:25:00 AM 7.0794 -73.2964 343° North  Level FlightAware Approximate
Mon 01:26:00 AM 7.1963 -73.3336 343° North  Level FlightAware Approximate
Mon 01:27:00 AM 7.3132 -73.3707 343° North  Level FlightAware Approximate
Mon 01:28:00 AM 7.4300 -73.4079 342° North  Level FlightAware Approximate
Mon 01:29:00 AM 7.5469 -73.4451 342° North  Level FlightAware Approximate
Mon 01:30:00 AM 7.6638 -73.4823 342° North  Level FlightAware Approximate
Mon 01:31:00 AM 7.7807 -73.5195 342° North  Level FlightAware Approximate
Mon 01:32:00 AM 7.8975 -73.5568 342° North  Level FlightAware Approximate
Mon 01:33:00 AM 8.0144 -73.5940 342° North  Level FlightAware Approximate
Mon 01:34:00 AM 8.1313 -73.6313 342° North  Level FlightAware Approximate
Mon 01:35:00 AM 8.2481 -73.6686 342° North  Level FlightAware Approximate
Mon 01:36:00 AM 8.3650 -73.7060 342° North  Level FlightAware Approximate
Mon 01:37:00 AM 8.4818 -73.7433 342° North  Level FlightAware Approximate
Mon 01:38:00 AM 8.5986 -73.7807 342° North  Level FlightAware Approximate
Mon 01:39:00 AM 8.7155 -73.8181 342° North  Level FlightAware Approximate
Mon 01:40:00 AM 8.8323 -73.8556 342° North  Level FlightAware Approximate
Mon 01:41:00 AM 8.9492 -73.8930 342° North  Level FlightAware Approximate
Mon 01:42:00 AM 9.0660 -73.9305 342° North  Level FlightAware Approximate
Mon 01:43:00 AM 9.1828 -73.9680 342° North  Level FlightAware Approximate
Mon 01:44:00 AM 9.2996 -74.0055 342° North  Level FlightAware Approximate
Mon 01:45:00 AM 9.4165 -74.0431 342° North  Level FlightAware Approximate
Mon 01:46:00 AM 9.5333 -74.0806 342° North  Level FlightAware Approximate
Mon 01:47:00 AM 9.6501 -74.1182 342° North  Level FlightAware Approximate
Mon 01:48:00 AM 9.7669 -74.1559 342° North  Level FlightAware Approximate
Mon 01:49:00 AM 9.8837 -74.1935 342° North  Level FlightAware Approximate
Mon 01:50:00 AM 10.0005 -74.2312 342° North  Level FlightAware Approximate
Mon 01:51:00 AM 10.1173 -74.2689 342° North  Level FlightAware Approximate
Mon 01:52:00 AM 10.2341 -74.3066 342° North  Level FlightAware Approximate
Mon 01:53:00 AM 10.3509 -74.3443 343° North  Level FlightAware Approximate
Mon 01:54:00 AM 10.4678 -74.3818 343° North  Level FlightAware Approximate
Mon 01:55:00 AM 10.5847 -74.4193 342° North  Level FlightAware Approximate
Mon 01:56:00 AM 10.7015 -74.4568 342° North  Level FlightAware Approximate
Mon 01:57:00 AM 10.8184 -74.4944 342° North  Level FlightAware Approximate
Mon 01:58:00 AM 10.9353 -74.5320 342° North  Level FlightAware Approximate
Mon 01:59:00 AM 11.0521 -74.5696 342° North  Level FlightAware Approximate
Mon 02:00:00 AM 11.1690 -74.6072 342° North  Level FlightAware Approximate
Mon 02:01:00 AM 11.2858 -74.6450 342° North  Level FlightAware Approximate
Mon 02:02:00 AM 11.4025 -74.6829 342° North  Level FlightAware Approximate
Mon 02:03:00 AM 11.5193 -74.7209 342° North  Level FlightAware Approximate
Mon 02:04:00 AM 11.6360 -74.7590 342° North  Level FlightAware Approximate
Mon 02:05:00 AM 11.7528 -74.7971 342° North  Level FlightAware Approximate
Mon 02:06:00 AM 11.8695 -74.8352 342° North  Level FlightAware Approximate
Mon 02:07:00 AM 11.9862 -74.8733 342° North  Level FlightAware Approximate
Mon 02:08:00 AM 12.1030 -74.9115 342° North  Level FlightAware Approximate
Mon 02:09:00 AM 12.2197 -74.9497 342° North  Level FlightAware Approximate
Mon 02:10:00 AM 12.3364 -74.9879 342° North  Level FlightAware Approximate
Mon 02:11:00 AM 12.4531 -75.0262 342° North  Level FlightAware Approximate
Mon 02:12:00 AM 12.5698 -75.0645 342° North  Level FlightAware Approximate
Mon 02:13:00 AM 12.6865 -75.1029 342° North  Level FlightAware Approximate
Mon 02:14:00 AM 12.8032 -75.1412 342° North  Level FlightAware Approximate
Mon 02:15:00 AM 12.9199 -75.1796 342° North  Level FlightAware Approximate
Mon 02:16:00 AM 13.0366 -75.2181 342° North  Level FlightAware Approximate
Mon 02:17:00 AM 13.1533 -75.2565 342° North  Level FlightAware Approximate
Mon 02:18:00 AM 13.2701 -75.2948 342° North  Level FlightAware Approximate
Mon 02:19:00 AM 13.3868 -75.3331 342° North  Level FlightAware Approximate
Mon 02:20:00 AM 13.5035 -75.3715 342° North  Level FlightAware Approximate
Mon 02:21:00 AM 13.6203 -75.4099 342° North  Level FlightAware Approximate
Mon 02:22:00 AM 13.7370 -75.4483 342° North  Level FlightAware Approximate
Mon 02:23:00 AM 13.8537 -75.4867 342° North  Level FlightAware Approximate
Mon 02:24:00 AM 13.9705 -75.5252 342° North  Level FlightAware Approximate
Mon 02:25:00 AM 14.0872 -75.5638 342° North  Level FlightAware Approximate
Mon 02:26:00 AM 14.2039 -75.6023 342° North  Level FlightAware Approximate
Mon 02:27:00 AM 14.3206 -75.6410 342° North  Level FlightAware Approximate
Mon 02:28:00 AM 14.4373 -75.6796 342° North  Level FlightAware Approximate
Mon 02:29:00 AM 14.5539 -75.7183 342° North  Level FlightAware Approximate
Mon 02:30:00 AM 14.6706 -75.7571 342° North  Level FlightAware Approximate
Mon 02:31:00 AM 14.7873 -75.7959 342° North  Level FlightAware Approximate
Mon 02:32:00 AM 14.9040 -75.8347 342° North  Level FlightAware Approximate
Mon 02:33:00 AM 15.0206 -75.8736 342° North  Level FlightAware Approximate
Mon 02:34:00 AM 15.1370 -75.9132 342° North  Level FlightAware Approximate
Mon 02:35:00 AM 15.2535 -75.9528 342° North  Level FlightAware Approximate
Mon 02:36:00 AM 15.3699 -75.9924 342° North  Level FlightAware Approximate
Mon 02:37:00 AM 15.4864 -76.0321 342° North  Level FlightAware Approximate
Mon 02:38:00 AM 15.6028 -76.0718 342° North  Level FlightAware Approximate
Mon 02:39:00 AM 15.7192 -76.1116 342° North  Level FlightAware Approximate
Mon 02:40:00 AM 15.8356 -76.1514 342° North  Level FlightAware Approximate
Mon 02:41:00 AM 15.9520 -76.1913 342° North  Level FlightAware Approximate
Mon 02:42:00 AM 16.0684 -76.2312 342° North  Level FlightAware Approximate
Mon 02:43:00 AM 16.1848 -76.2711 342° North  Level FlightAware Approximate
Mon 02:44:00 AM 16.3012 -76.3111 342° North  Level FlightAware Approximate
Mon 02:45:00 AM 16.4175 -76.3512 342° North  Level FlightAware Approximate
Mon 02:46:00 AM 16.5339 -76.3913 342° North  Level FlightAware Approximate
Mon 02:47:00 AM 16.6503 -76.4314 342° North  Level FlightAware Approximate
Mon 02:48:00 AM 16.7666 -76.4716 342° North  Level FlightAware Approximate
Mon 02:49:00 AM 16.8830 -76.5118 342° North  Level FlightAware Approximate
Mon 02:50:00 AM 16.9993 -76.5521 342° North  Level FlightAware Approximate
Mon 02:51:00 AM 17.1156 -76.5925 342° North  Level FlightAware Approximate
Mon 02:52:00 AM 17.2319 -76.6329 342° North  Level FlightAware Approximate
Mon 02:53:00 AM 17.3485 -76.6724 342° North  Level FlightAware Approximate
Mon 02:54:00 AM 17.4651 -76.7120 342° North  Level FlightAware Approximate
Mon 02:55:00 AM 17.5817 -76.7516 342° North  Level FlightAware Approximate
Mon 02:56:00 AM 17.6983 -76.7912 342° North  Level FlightAware Approximate
Mon 02:57:00 AM 17.8148 -76.8310 342° North  Level FlightAware Approximate
Mon 02:58:00 AM 17.9314 -76.8708 342° North  Level FlightAware Approximate
Mon 02:59:00 AM 18.0480 -76.9106 342° North  Level FlightAware Approximate
Mon 03:00:00 AM 18.1645 -76.9505 342° North  Level FlightAware Approximate
Mon 03:01:00 AM 18.2810 -76.9904 342° North  Level FlightAware Approximate
Mon 03:02:00 AM 18.3976 -77.0304 342° North  Level FlightAware Approximate
Mon 03:03:00 AM 18.5141 -77.0704 342° North  Level FlightAware Approximate
Mon 03:04:00 AM 18.6306 -77.1105 342° North  Level FlightAware Approximate
Mon 03:05:00 AM 18.7471 -77.1507 342° North  Level FlightAware Approximate
Mon 03:06:00 AM 18.8636 -77.1909 342° North  Level FlightAware Approximate
Mon 03:07:00 AM 18.9801 -77.2311 342° North  Level FlightAware Approximate
Mon 03:08:00 AM 19.0965 -77.2715 342° North  Level FlightAware Approximate
Mon 03:09:00 AM 19.2130 -77.3119 342° North  Level FlightAware Approximate
Mon 03:10:00 AM 19.3295 -77.3523 342° North  Level FlightAware Approximate
Mon 03:11:00 AM 19.4459 -77.3928 342° North  Level FlightAware Approximate
Mon 03:12:00 AM 19.5622 -77.4339 342° North  Level FlightAware Approximate
Mon 03:13:00 AM 19.6784 -77.4752 342° North  Level FlightAware Approximate
Mon 03:14:00 AM 19.7946 -77.5165 341° North  Level FlightAware Approximate
Mon 03:15:00 AM 19.9108 -77.5579 341° North  Level FlightAware Approximate
Mon 03:16:00 AM 20.0270 -77.5994 341° North  Level FlightAware Approximate
Mon 03:17:00 AM 20.1432 -77.6409 341° North  Level FlightAware Approximate
Mon 03:18:00 AM 20.2593 -77.6825 341° North  Level FlightAware Approximate
Mon 03:19:00 AM 20.3755 -77.7241 341° North  Level FlightAware Approximate
Mon 03:20:00 AM 20.4917 -77.7658 341° North  Level FlightAware Approximate
Mon 03:21:00 AM 20.6078 -77.8076 341° North  Level FlightAware Approximate
Mon 03:22:00 AM 20.7239 -77.8494 341° North  Level FlightAware Approximate
Mon 03:23:00 AM 20.8400 -77.8913 341° North  Level FlightAware Approximate
Mon 03:24:00 AM 20.9562 -77.9333 341° North  Level FlightAware Approximate
Mon 03:25:00 AM 21.0723 -77.9753 341° North  Level FlightAware Approximate
Mon 03:26:00 AM 21.1884 -78.0174 341° North  Level FlightAware Approximate
Mon 03:27:00 AM 21.3044 -78.0596 341° North  Level FlightAware Approximate
Mon 03:28:00 AM 21.4205 -78.1018 341° North  Level FlightAware Approximate
Mon 03:29:00 AM 21.5366 -78.1441 341° North  Level FlightAware Approximate
Mon 03:30:00 AM 21.6526 -78.1864 341° North  Level FlightAware Approximate
Mon 03:31:00 AM 21.7687 -78.2289 341° North  Level FlightAware Approximate
Mon 03:32:00 AM 21.8847 -78.2714 341° North  Level FlightAware Approximate
Mon 03:33:00 AM 22.0007 -78.3139 341° North  Level FlightAware Approximate
Mon 03:34:00 AM 22.1167 -78.3566 341° North  Level FlightAware Approximate
Mon 03:35:00 AM 22.2327 -78.3993 341° North  Level FlightAware Approximate
Mon 03:36:00 AM 22.3487 -78.4421 341° North  Level FlightAware Approximate
Mon 03:37:00 AM 22.4647 -78.4849 341° North  Level FlightAware Approximate
Mon 03:38:00 AM 22.5806 -78.5278 341° North  Level FlightAware Approximate
Mon 03:39:00 AM 22.6966 -78.5708 341° North  Level FlightAware Approximate
Mon 03:40:00 AM 22.8125 -78.6139 341° North  Level FlightAware Approximate
Mon 03:41:00 AM 22.9284 -78.6570 341° North  Level FlightAware Approximate
Mon 03:42:00 AM 23.0444 -78.7002 341° North  Level FlightAware Approximate
Mon 03:43:00 AM 23.1603 -78.7435 341° North  Level FlightAware Approximate
Mon 03:44:00 AM 23.2761 -78.7869 341° North  Level FlightAware Approximate
Mon 03:45:00 AM 23.3920 -78.8303 341° North  Level FlightAware Approximate
Mon 03:46:00 AM 23.5076 -78.8750 340° North  Level FlightAware Approximate
Mon 03:47:00 AM 23.6231 -78.9198 340° North  Level FlightAware Approximate
Mon 03:48:00 AM 23.7385 -78.9647 340° North  Level FlightAware Approximate
Mon 03:49:00 AM 23.8540 -79.0097 340° North  Level FlightAware Approximate
Mon 03:50:00 AM 23.9694 -79.0547 340° North  Level FlightAware Approximate
Mon 03:50:54 AM 23.2639 -78.7494 327° Northwest 465 535 38,000  Level Miami Center
Mon 03:51:00 AM 24.0712 -79.1263 328° Northwest  Level FlightAware Approximate
Mon 03:51:56 AM 23.3678 -78.7872 342° North 406 467 38,000  Level Miami Center
Mon 03:52:00 AM 24.1747 -79.1983 328° Northwest  Level FlightAware Approximate
Mon 03:52:56 AM 23.4781 -78.8386 337° Northwest 413 475 38,000  Level Miami Center
Mon 03:53:00 AM 24.2781 -79.2704 328° Northwest  Level FlightAware Approximate
Mon 03:53:54 AM 23.5839 -78.8833 339° North 418 481 38,000  Level Miami Center
Mon 03:54:00 AM 24.3815 -79.3426 328° Northwest  Level FlightAware Approximate
Mon 03:54:54 AM 23.6961 -78.9375 336° Northwest 428 493 38,000  Level Miami Center
Mon 03:55:00 AM 24.4849 -79.4149 328° Northwest  Level FlightAware Approximate
Mon 03:55:53 AM 23.8039 -78.9844 338° Northwest 422 486 38,000  Level Miami Center
Mon 03:56:00 AM 24.5882 -79.4874 327° Northwest  Level FlightAware Approximate
Mon 03:56:54 AM 23.9161 -79.0364 337° Northwest 428 493 38,000  Level Miami Center
Mon 03:57:55 AM 24.0181 -79.0722 342° North 425 489 38,000  Level Miami Center
Mon 03:58:55 AM 24.1364 -79.1222 339° North 410 472 38,000  Level Miami Center
Mon 03:59:56 AM 24.2464 -79.1631 341° North 408 470 38,000  Level Miami Center
Mon 04:00:53 AM 24.3564 -79.2039 341° North 427 491 38,000  Level Miami Center
Mon 04:01:54 AM 24.4647 -79.2400 343° North 427 491 38,000  Level Miami Center
Mon 04:02:54 AM 24.5767 -79.2811 342° North 422 486 38,000  Level Miami Center
Mon 04:03:55 AM 24.6911 -79.3222 342° North 422 486 38,000  Level Miami Center
Mon 04:04:53 AM 24.8031 -79.3656 341° North 422 486 38,000  Level Miami Center
Mon 04:05:53 AM 24.9153 -79.4067 342° North 422 486 38,000  Level Miami Center
Mon 04:06:54 AM 25.0275 -79.4481 342° North 427 491 38,000  Level Miami Center
Mon 04:07:54 AM 25.1414 -79.4919 341° North 427 491 38,000  Level Miami Center
Mon 04:08:56 AM 25.2556 -79.5333 342° North 427 491 38,000  Level Miami Center
Mon 04:09:55 AM 25.3844 -79.5822 341° North 427 491 38,000  Level Miami Center
Mon 04:10:53 AM 25.4983 -79.6239 342° North 427 491 38,000  Level Miami Center
Mon 04:11:55 AM 25.6125 -79.6678 341° North 427 491 38,000  Level Miami Center
Mon 04:12:54 AM 25.7244 -79.7119 340° North 427 491 38,000  Level Miami Center
Mon 04:13:54 AM 25.8406 -79.7564 341° North 427 491 38,000  Level Miami Center
Mon 04:14:56 AM 25.9547 -79.7983 342° North 427 491 38,000  Level Miami Center
Mon 04:15:56 AM 26.0667 -79.8381 342° North 427 491 38,000  Level Miami Center
Mon 04:16:54 AM 26.1828 -79.8850 340° North 427 491 38,000  Level Miami Center
Mon 04:17:56 AM 26.2842 -79.9222 342° North 427 491 38,000  Level Miami Center
Mon 04:18:54 AM 26.4086 -79.9719 340° North 427 491 38,000  Level Miami Center
Mon 04:19:55 AM 26.5122 -80.0117 341° North 427 491 38,000  Level Miami Center
Mon 04:20:54 AM 26.6364 -80.0617 340° North 427 491 38,000  Level Miami Center
Mon 04:21:53 AM 26.7378 -80.1017 341° North 427 491 38,000  Level Miami Center
Mon 04:22:53 AM 26.8622 -80.1469 342° North 422 486 38,000  Level Miami Center
Mon 04:23:53 AM 26.9633 -80.1917 338° Northwest 427 491 38,000  Level Miami Center
Mon 04:24:53 AM 27.0772 -80.2322 342° North 427 491 38,000  Level Miami Center
Mon 04:25:53 AM 27.1911 -80.2753 341° North 427 491 38,000  Level Miami Center
Mon 04:26:53 AM 27.3050 -80.3208 340° North 427 491 38,000  Level Miami Center
Mon 04:27:53 AM 27.4144 -80.3639 341° North 427 491 38,000  Level Miami Center
Mon 04:28:54 AM 27.5261 -80.4069 341° North 427 491 38,000  Level Miami Center
Mon 04:29:53 AM 27.6378 -80.4503 341° North 427 491 38,000  Level Miami Center
Mon 04:30:55 AM 27.7494 -80.4936 341° North 427 491 38,000  Level Miami Center
Mon 04:31:53 AM 27.8633 -80.5372 341° North 427 491 38,000  Level Miami Center
Mon 04:32:55 AM 27.9728 -80.5808 341° North 427 491 38,000  Level Miami Center
Mon 04:33:55 AM 28.0886 -80.6247 342° North 427 491 38,000  Level Miami Center
Mon 04:34:53 AM 28.1958 -80.6683 340° North 427 491 38,000 -203 Level Miami Center
Mon 04:38:51 AM 28.6514 -80.8533 340° North 433 498 37,000 -201 Descending Jacksonville Center
Mon 04:39:51 AM 28.7667 -80.8983 341° North 438 504 37,000  Level Jacksonville Center
Mon 04:40:51 AM 28.8781 -80.9483 339° North 433 498 37,000  Level Jacksonville Center
Mon 04:41:51 AM 28.9894 -81.0006 338° Northwest 433 498 37,000  Level Jacksonville Center
Mon 04:42:51 AM 29.1011 -81.0603 335° Northwest 433 498 37,000  Level Jacksonville Center
Mon 04:43:51 AM 29.2125 -81.1153 337° Northwest 438 504 37,000  Level Jacksonville Center
Mon 04:44:51 AM 29.3258 -81.1681 338° Northwest 438 504 37,000  Level Jacksonville Center
Mon 04:45:51 AM 29.4372 -81.2233 337° Northwest 438 504 37,000  Level Jacksonville Center
Mon 04:46:51 AM 29.5467 -81.2811 335° Northwest 433 498 37,000  Level Jacksonville Center
Mon 04:47:51 AM 29.6578 -81.3367 337° Northwest 433 498 37,000  Level Jacksonville Center
Mon 04:48:51 AM 29.7692 -81.3925 336° Northwest 433 498 37,000  Level Jacksonville Center
Mon 04:49:51 AM 29.8806 -81.4481 337° Northwest 433 498 37,000  Level Jacksonville Center
Mon 04:50:51 AM 29.9939 -81.5017 338° Northwest 438 504 37,000  Level Jacksonville Center
Mon 04:51:51 AM 30.1072 -81.5600 336° Northwest 438 504 37,000  Level Jacksonville Center
Mon 04:52:51 AM 30.2161 -81.6114 338° Northwest 438 504 37,000  Level Jacksonville Center
Mon 04:53:51 AM 30.3317 -81.6675 337° Northwest 438 504 37,000  Level Jacksonville Center
Mon 04:54:51 AM 30.4386 -81.7242 335° Northwest 430 495 37,000  Level Jacksonville Center
Mon 04:55:51 AM 30.5539 -81.7831 336° Northwest 433 498 37,000  Level Jacksonville Center
Mon 04:56:51 AM 30.6589 -81.8372 336° Northwest 441 507 37,000  Level Jacksonville Center
Mon 04:57:51 AM 30.7678 -81.8942 336° Northwest 441 507 37,000  Level Jacksonville Center
Mon 04:58:51 AM 30.8769 -81.9511 336° Northwest 441 507 37,000  Level Jacksonville Center
Mon 04:59:51 AM 30.9922 -82.0103 336° Northwest 441 507 37,000  Level Jacksonville Center
Mon 05:00:51 AM 31.1033 -82.0700 335° Northwest 441 507 37,000 -550 Level Jacksonville Center
Mon 05:01:51 AM 31.2183 -82.1297 336° Northwest 441 507 35,900 -1,350 Descending Jacksonville Center
Mon 05:02:51 AM 31.3275 -82.2019 331° Northwest 448 516 34,300 -1,400 Descending Jacksonville Center
Mon 05:03:51 AM 31.4342 -82.2789 328° Northwest 453 521 33,100 -650 Descending Jacksonville Center
Mon 05:04:51 AM 31.5433 -82.3514 330° Northwest 452 520 33,000 -29 Descending Jacksonville Center
Mon 05:07:21 AM 31.8275 -82.5625 328° Northwest 458 527 33,000  Level Atlanta Center
Mon 05:08:21 AM 31.9289 -82.6586 321° Northwest 466 536 33,000  Level Atlanta Center
Mon 05:09:21 AM 32.0281 -82.7575 320° Northwest 466 536 33,000  Level Atlanta Center
Mon 05:10:21 AM 32.1250 -82.8617 318° Northwest 471 542 33,000  Level Atlanta Center
Mon 05:11:21 AM 32.2219 -82.9611 319° Northwest 466 536 33,000  Level Atlanta Center
Mon 05:12:21 AM 32.3144 -83.0533 320° Northwest 472 543 33,000  Level Atlanta Center
Mon 05:13:21 AM 32.4092 -83.1556 318° Northwest 466 536 33,000 -400 Level Atlanta Center
Mon 05:14:21 AM 32.5058 -83.2531 320° Northwest 461 531 32,200 -1,800 Descending Atlanta Center
Mon 05:15:21 AM 32.6047 -83.3533 320° Northwest 466 536 29,400 -2,750 Descending Atlanta Center
Mon 05:16:21 AM 32.7011 -83.4586 317° Northwest 466 536 26,700 -2,650 Descending Atlanta Center
Mon 05:17:21 AM 32.7975 -83.5544 320° Northwest 466 536 24,100 -2,600 Descending Atlanta Center
Mon 05:18:21 AM 32.8919 -83.6553 318° Northwest 461 531 21,500 -2,550 Descending Atlanta Center
Mon 05:19:21 AM 32.9842 -83.7539 318° Northwest 456 525 19,000 -2,650 Descending Atlanta Center
Mon 05:20:21 AM 33.0844 -83.8553 320° Northwest 440 506 16,200 -2,250 Descending Atlanta Center
Mon 05:21:21 AM 33.1722 -83.9444 320° Northwest 421 484 14,500 -1,850 Descending Atlanta Center
Mon 05:22:21 AM 33.2642 -83.9892 338° Northwest 372 428 12,500 -1,850 Descending Atlanta Center
Mon 05:23:21 AM 33.3350 -84.0239 338° Northwest 331 381 10,800 -1,950 Descending Atlanta Center
Mon 05:24:21 AM 33.4122 -84.0561 341° North 304 350 8,600 -1,900 Descending Atlanta Center
Mon 05:25:21 AM 33.4811 -84.0836 342° North 270 311 7,000 -1,600 Descending Atlanta Center
Mon 05:26:21 AM 33.5436 -84.1111 340° North 252 290 5,400 -1,085 Descending Atlanta Center
Mon 05:26:55 AM 33.5833 -84.1333 335° Northwest 196 226 5,300 -766 Descending Atlanta TRACON
Mon 05:27:55 AM 33.6167 -84.1667 320° Northwest 189 217 4,200 -950 Descending Atlanta TRACON
Mon 05:28:55 AM 33.6333 -84.2167 292° West 185 213 3,400 -800 Descending Atlanta TRACON

Login

Don't have an account? Register now (free) for customized features, flight alerts, and more!